Time;durP1;ratioP1;P1;durP2;ratioP2;P2;SDS_P1;SDS_P2;PMS_P1;PMS_P2;Temp;Humidity;BMP_temperature;BMP_pressure;BME280_temperature;BME280_humidity;BME280_pressure;Samples;Min_cycle;Max_cycle;Signal;HPM_P1;HPM_P2
2023/01/27 00:01:19;;;;;;;17.65;8.50;;;;;;;5.33;61.50;100532.00;5022219;28;20045;-70
2023/01/27 00:03:47;;;;;;;14.48;6.68;;;;;;;5.14;62.06;100526.00;5025061;28;20079;-70
2023/01/27 00:06:15;;;;;;;15.60;6.80;;;;;;;5.14;62.13;100528.72;5021273;28;20059;-71
2023/01/27 00:08:42;;;;;;;15.45;6.75;;;;;;;5.06;61.55;100526.38;5037936;28;20068;-71
2023/01/27 00:13:57;;;;;;;12.70;6.82;;;;;;;5.01;62.57;100529.81;5037126;28;20387;-71
2023/01/27 00:16:25;;;;;;;14.63;6.95;;;;;;;4.82;61.52;100523.78;5021011;28;20055;-71
2023/01/27 00:18:53;;;;;;;10.25;6.30;;;;;;;4.82;62.08;100524.63;5037526;28;20048;-71
2023/01/27 00:26:58;;;;;;;13.30;6.18;;;;;;;4.96;60.52;100524.31;5037431;28;20045;-71
2023/01/27 00:29:26;;;;;;;12.40;5.72;;;;;;;4.90;59.76;100528.00;5021053;28;20055;-71
2023/01/27 00:34:41;;;;;;;12.10;5.88;;;;;;;4.82;60.49;100521.06;5037207;28;20060;-71
2023/01/27 00:37:09;;;;;;;11.07;5.45;;;;;;;4.75;60.11;100525.81;5020589;28;20060;-71
2023/01/27 00:39:37;;;;;;;11.23;6.15;;;;;;;4.81;61.68;100514.00;5037612;28;20486;-71
2023/01/27 00:42:05;;;;;;;14.75;6.70;;;;;;;5.01;60.29;100524.41;5036846;28;20056;-71
2023/01/27 00:44:35;;;;;;;12.23;5.63;;;;;;;4.56;60.62;100518.69;5020870;28;20049;-71
2023/01/27 00:47:03;;;;;;;14.65;7.00;;;;;;;4.82;60.59;100519.19;5021282;28;20056;-71
2023/01/27 00:49:31;;;;;;;12.27;7.03;;;;;;;4.74;60.57;100522.28;5037223;28;20506;-70
2023/01/27 00:52:00;;;;;;;14.35;7.10;;;;;;;4.82;61.02;100513.78;5037210;28;20044;-70
2023/01/27 00:54:28;;;;;;;13.93;6.88;;;;;;;5.01;61.72;100512.72;5017214;28;20515;-71
2023/01/27 00:56:56;;;;;;;13.07;6.18;;;;;;;5.11;60.06;100516.47;5033901;28;20045;-71
2023/01/27 00:59:24;;;;;;;11.23;6.05;;;;;;;5.06;61.62;100519.06;5033764;28;20388;-71
2023/01/27 01:01:52;;;;;;;14.02;6.80;;;;;;;5.06;60.52;100524.50;5033438;28;20052;-71
2023/01/27 01:04:21;;;;;;;13.43;6.10;;;;;;;5.07;60.74;100523.44;5021656;28;20052;-71
2023/01/27 01:06:50;;;;;;;10.85;5.85;;;;;;;4.64;59.75;100525.63;5041074;28;20510;-71
2023/01/27 01:09:18;;;;;;;16.17;7.05;;;;;;;4.56;59.53;100526.81;5016547;28;20048;-71
2023/01/27 01:11:47;;;;;;;13.27;6.20;;;;;;;4.67;60.68;100533.28;5035916;28;20040;-71
2023/01/27 01:14:15;;;;;;;10.45;5.70;;;;;;;4.65;60.04;100531.88;5039709;28;20052;-70
2023/01/27 01:16:43;;;;;;;12.25;6.68;;;;;;;4.71;60.74;100531.72;5029129;28;20061;-71
2023/01/27 01:19:11;;;;;;;15.07;6.70;;;;;;;4.63;60.89;100528.56;5033971;28;20052;-71
2023/01/27 01:21:40;;;;;;;12.27;5.90;;;;;;;4.71;60.07;100530.91;5024229;28;20491;-71
2023/01/27 01:24:08;;;;;;;13.68;6.07;;;;;;;4.78;60.26;100528.88;5023806;28;20055;-71
2023/01/27 01:26:36;;;;;;;16.35;6.95;;;;;;;4.69;61.44;100527.59;5024335;28;20056;-70
2023/01/27 01:29:05;;;;;;;16.05;6.22;;;;;;;4.75;60.92;100526.66;5024400;28;20049;-71
2023/01/27 01:31:34;;;;;;;10.40;5.70;;;;;;;4.98;59.70;100528.44;5024325;28;20048;-71
2023/01/27 01:34:03;;;;;;;14.23;6.80;;;;;;;4.81;60.76;100530.28;5040410;28;20059;-71
2023/01/27 01:36:31;;;;;;;12.98;6.03;;;;;;;4.55;60.49;100525.19;5040182;28;20052;-71
2023/01/27 01:38:59;;;;;;;13.60;6.85;;;;;;;4.68;59.58;100528.66;5056712;28;20044;-71
2023/01/27 01:41:27;;;;;;;15.10;6.97;;;;;;;4.54;60.39;100525.41;5074614;28;20107;-71
2023/01/27 01:43:54;;;;;;;13.23;6.50;;;;;;;4.80;60.60;100539.47;5074257;28;20047;-71
2023/01/27 01:46:22;;;;;;;14.95;6.90;;;;;;;4.56;59.87;100532.25;5056184;28;20383;-71
2023/01/27 01:48:52;;;;;;;12.15;5.90;;;;;;;4.72;60.79;100537.97;5056661;28;20052;-71
2023/01/27 01:51:31;;;;;;;12.05;5.95;;;;;;;4.79;60.90;100529.69;5056582;28;20052;-70
2023/01/27 01:53:59;;;;;;;12.75;6.00;;;;;;;4.77;59.82;100529.09;5074188;28;20060;-72
2023/01/27 01:56:36;;;;;;;12.60;6.90;;;;;;;4.76;61.81;100524.75;5074234;28;20060;-71
2023/01/27 01:59:09;;;;;;;11.75;6.57;;;;;;;4.75;61.77;100525.81;5056532;28;20052;-71
2023/01/27 02:01:37;;;;;;;13.73;5.83;;;;;;;4.86;60.88;100526.81;5074384;28;20072;-71
2023/01/27 02:04:11;;;;;;;12.48;6.55;;;;;;;4.77;61.56;100523.69;5056033;28;20044;-71
2023/01/27 02:06:49;;;;;;;12.18;6.28;;;;;;;4.75;61.47;100529.38;5073511;28;20032;-71
2023/01/27 02:09:20;;;;;;;11.30;5.43;;;;;;;4.84;61.32;100518.97;5056229;28;20047;-71
2023/01/27 02:11:48;;;;;;;17.67;6.82;;;;;;;4.76;60.98;100528.28;5055856;28;20047;-71
2023/01/27 02:14:17;;;;;;;12.23;6.70;;;;;;;4.72;61.74;100529.84;5073632;28;20502;-71
2023/01/27 02:16:45;;;;;;;13.48;6.32;;;;;;;4.94;60.48;100529.16;5073088;28;20474;-71
2023/01/27 02:19:41;;;;;;;10.77;6.00;;;;;;;4.85;61.50;100542.28;5074168;28;20049;-71
2023/01/27 02:22:19;;;;;;;14.20;6.68;;;;;;;4.78;62.86;100537.00;5073661;28;20036;-71
2023/01/27 02:24:54;;;;;;;13.18;7.03;;;;;;;4.82;62.11;100535.47;5056007;28;20052;-71
2023/01/27 02:27:22;;;;;;;16.02;7.03;;;;;;;4.79;61.69;100530.50;5073941;28;20475;-71
2023/01/27 02:29:50;;;;;;;17.58;7.57;;;;;;;4.86;61.90;100516.81;5073876;28;20486;-71
2023/01/27 02:32:25;;;;;;;12.10;6.18;;;;;;;4.80;62.23;100524.00;5073090;28;20045;-71
2023/01/27 02:34:56;;;;;;;12.63;7.22;;;;;;;4.78;62.54;100518.03;5055850;28;20040;-71
2023/01/27 02:37:25;;;;;;;16.58;6.90;;;;;;;4.61;62.43;100525.28;5055514;28;20048;-70
2023/01/27 02:39:56;;;;;;;16.52;7.10;;;;;;;4.61;63.91;100531.53;5055797;28;20483;-71
2023/01/27 02:42:24;;;;;;;12.60;6.75;;;;;;;4.71;63.16;100520.88;5073328;28;20063;-71
2023/01/27 02:44:52;;;;;;;14.80;6.38;;;;;;;4.82;62.76;100518.34;5073498;28;20049;-71
2023/01/27 02:47:20;;;;;;;13.23;6.40;;;;;;;4.83;62.85;100520.84;5073544;28;20049;-71
2023/01/27 02:49:48;;;;;;;15.13;7.53;;;;;;;4.74;63.74;100521.47;5073620;28;20044;-71
2023/01/27 02:52:17;;;;;;;14.93;7.13;;;;;;;4.78;63.03;100519.91;5055377;28;20055;-71
2023/01/27 02:54:45;;;;;;;13.98;6.35;;;;;;;4.92;62.69;100515.84;5072495;28;20045;-71
2023/01/27 02:57:12;;;;;;;16.50;7.25;;;;;;;5.04;61.42;100518.47;5073325;28;20055;-71
2023/01/27 02:59:52;;;;;;;12.45;6.68;;;;;;;5.03;62.19;100516.84;5055515;28;20037;-71
2023/01/27 03:02:21;;;;;;;14.65;7.13;;;;;;;5.04;62.42;100518.47;5073073;28;20041;-71
2023/01/27 03:04:49;;;;;;;13.70;7.28;;;;;;;4.98;64.12;100520.28;5055448;28;20055;-71
2023/01/27 03:07:19;;;;;;;15.93;6.85;;;;;;;5.01;63.14;100513.56;5055321;28;20044;-71
2023/01/27 03:09:47;;;;;;;15.07;6.80;;;;;;;4.99;63.33;100518.41;5055173;28;20044;-70
2023/01/27 03:12:20;;;;;;;11.85;6.15;;;;;;;4.94;62.92;100515.59;5071935;28;20056;-71
2023/01/27 03:20:24;;;;;;;18.10;7.93;;;;;;;4.92;62.68;100513.13;5055178;28;20043;-71
2023/01/27 03:22:52;;;;;;;17.13;7.00;;;;;;;4.80;62.78;100502.31;5071262;28;20040;-71
2023/01/27 03:25:22;;;;;;;14.93;6.95;;;;;;;4.74;65.05;100514.13;5034487;28;20051;-71
2023/01/27 03:27:50;;;;;;;15.05;7.65;;;;;;;4.50;64.98;100508.81;5053806;28;20037;-71
2023/01/27 03:30:35;;;;;;;12.32;7.35;;;;;;;4.66;65.22;100512.66;5051166;28;20521;-71
2023/01/27 03:33:11;;;;;;;17.25;8.85;;;;;;;4.76;63.64;100511.19;5068558;28;20059;-71
2023/01/27 03:47:06;;;;;;;14.48;7.10;;;;;;;4.73;64.39;100506.28;5072325;28;20048;-71
2023/01/27 03:49:34;;;;;;;15.07;7.05;;;;;;;4.71;64.15;100507.31;5072289;28;20048;-71
2023/01/27 03:52:02;;;;;;;14.48;7.82;;;;;;;4.55;63.95;100508.09;5072062;28;20040;-71
2023/01/27 03:54:30;;;;;;;14.45;7.68;;;;;;;4.64;64.43;100516.69;5072051;28;20503;-71
2023/01/27 03:57:04;;;;;;;13.93;6.95;;;;;;;4.84;65.27;100518.97;5071355;28;20049;-71
2023/01/27 03:59:34;;;;;;;16.55;7.40;;;;;;;4.61;62.67;100514.44;5072039;28;20045;-71
2023/01/27 04:07:37;;;;;;;11.93;7.18;;;;;;;4.44;61.76;100510.59;5072054;28;20139;-71
2023/01/27 04:10:05;;;;;;;11.98;5.88;;;;;;;4.44;61.15;100512.47;5072612;28;20052;-71
2023/01/27 04:12:33;;;;;;;13.48;6.53;;;;;;;4.71;61.17;100520.06;5072171;28;20071;-71
2023/01/27 04:15:01;;;;;;;13.77;6.43;;;;;;;4.46;60.06;100521.22;5071496;28;20502;-71
2023/01/27 04:17:29;;;;;;;9.43;5.40;;;;;;;4.40;59.81;100511.34;5071987;28;20056;-70
2023/01/27 04:19:57;;;;;;;10.02;5.35;;;;;;;4.33;59.70;100516.03;5054343;28;20045;-71
2023/01/27 04:22:25;;;;;;;11.05;5.93;;;;;;;4.39;60.23;100512.38;5072136;28;20499;-71
2023/01/27 04:24:52;;;;;;;12.68;6.15;;;;;;;4.38;61.64;100516.16;5071265;28;20036;-71
2023/01/27 04:27:20;;;;;;;11.93;6.32;;;;;;;4.37;60.64;100509.09;5071868;28;20053;-71
2023/01/27 04:29:48;;;;;;;12.07;6.07;;;;;;;4.49;60.63;100501.75;5071039;28;20049;-71
2023/01/27 04:32:16;;;;;;;11.27;5.82;;;;;;;4.46;60.12;100507.66;5071600;28;20037;-71
2023/01/27 04:34:44;;;;;;;9.93;5.68;;;;;;;4.37;59.78;100507.22;5053914;28;20040;-71
2023/01/27 04:37:12;;;;;;;11.52;5.93;;;;;;;4.59;59.83;100511.16;5071494;28;20049;-71
2023/01/27 04:39:40;;;;;;;13.75;6.05;;;;;;;4.53;59.63;100510.22;5055833;28;20041;-71
2023/01/27 04:42:08;;;;;;;12.35;6.40;;;;;;;4.39;60.26;100512.38;5075550;28;20041;-71
2023/01/27 04:44:36;;;;;;;16.60;6.72;;;;;;;4.47;59.61;100516.59;5075462;28;20036;-71
2023/01/27 04:47:04;;;;;;;14.30;5.82;;;;;;;4.54;59.12;100507.28;5075912;28;20048;-71
2023/01/27 04:49:32;;;;;;;11.40;5.78;;;;;;;4.47;60.07;100508.47;5057981;28;20041;-71
2023/01/27 04:52:00;;;;;;;9.82;4.82;;;;;;;4.47;59.17;100522.84;5075634;28;20044;-71
2023/01/27 04:54:27;;;;;;;11.95;6.10;;;;;;;4.65;59.49;100515.59;5075328;28;20390;-71
2023/01/27 04:56:58;;;;;;;10.70;5.30;;;;;;;4.56;59.61;100515.97;5075549;28;20052;-71
2023/01/27 04:59:26;;;;;;;15.60;5.72;;;;;;;4.65;59.18;100526.44;5075783;28;20607;-71
2023/01/27 05:01:54;;;;;;;11.93;5.68;;;;;;;4.56;59.50;100524.09;5075201;28;20044;-71
2023/01/27 05:04:23;;;;;;;10.70;5.18;;;;;;;4.51;58.17;100518.63;5075175;28;20048;-71
2023/01/27 05:06:50;;;;;;;12.85;5.70;;;;;;;4.51;58.25;100524.03;5075573;28;20051;-71
2023/01/27 05:09:18;;;;;;;7.88;4.65;;;;;;;4.39;59.09;100523.22;5075380;28;20051;-71
2023/01/27 05:11:46;;;;;;;11.45;5.85;;;;;;;4.70;58.92;100531.97;5075310;28;20505;-71
2023/01/27 05:14:14;;;;;;;12.98;5.72;;;;;;;4.63;59.39;100532.09;5074829;28;20052;-71
2023/01/27 05:16:42;;;;;;;14.85;7.13;;;;;;;4.76;59.93;100536.44;5056623;28;20402;-71
2023/01/27 05:19:10;;;;;;;12.30;6.07;;;;;;;4.84;57.67;100540.66;5075187;28;20056;-71
2023/01/27 05:21:38;;;;;;;12.35;5.90;;;;;;;4.82;58.91;100543.59;5075058;28;20053;-71
2023/01/27 05:24:07;;;;;;;7.30;4.78;;;;;;;4.83;60.34;100544.41;5073977;28;20068;-75
2023/01/27 05:26:34;;;;;;;11.13;5.85;;;;;;;4.66;58.25;100538.94;5074663;28;20051;-72
2023/01/27 05:29:02;;;;;;;11.27;5.75;;;;;;;4.79;58.12;100538.63;5074797;28;20036;-72
2023/01/27 05:31:30;;;;;;;9.98;5.03;;;;;;;4.72;59.42;100543.38;5066167;28;20044;-72
2023/01/27 05:34:00;;;;;;;10.65;5.15;;;;;;;4.72;58.18;100551.53;5068085;28;20505;-72
2023/01/27 05:36:29;;;;;;;13.05;5.85;;;;;;;4.84;57.46;100556.91;5073525;28;20049;-72
2023/01/27 05:38:58;;;;;;;10.23;5.80;;;;;;;4.91;59.04;100552.16;5070607;28;20403;-71
2023/01/27 05:41:29;;;;;;;11.32;5.60;;;;;;;5.01;57.03;100565.09;5073712;28;20407;-71
2023/01/27 05:43:58;;;;;;;12.00;5.32;;;;;;;4.87;57.20;100563.72;5074054;28;20040;-71
2023/01/27 05:46:28;;;;;;;9.23;5.30;;;;;;;4.73;57.57;100561.31;5074491;28;20048;-71
2023/01/27 05:50:29;;;;;;;10.60;5.60;;;;;;;4.56;57.15;100556.63;5056208;28;20052;-71
2023/01/27 05:52:58;;;;;;;10.02;5.75;;;;;;;4.51;57.00;100561.97;5074433;28;20048;-72
2023/01/27 05:55:26;;;;;;;12.20;6.10;;;;;;;4.52;57.62;100565.50;5074391;28;20044;-72
2023/01/27 05:57:55;;;;;;;13.07;5.85;;;;;;;4.70;58.63;100572.66;5074667;28;20518;-72
2023/01/27 06:00:23;;;;;;;10.57;5.65;;;;;;;4.68;56.28;100572.03;5056738;28;20044;-72
2023/01/27 06:02:51;;;;;;;14.57;6.03;;;;;;;4.56;58.12;100567.47;5073764;28;20040;-72
2023/01/27 06:05:18;;;;;;;9.77;5.22;;;;;;;4.63;58.72;100577.34;5056699;28;20057;-73
2023/01/27 06:07:46;;;;;;;12.75;5.53;;;;;;;4.82;57.25;100576.13;5069655;28;20052;-72
2023/01/27 06:10:14;;;;;;;11.68;5.00;;;;;;;4.81;57.72;100576.38;5071827;28;20044;-73
2023/01/27 06:12:42;;;;;;;10.82;5.90;;;;;;;4.60;57.71;100569.72;5072170;28;20044;-72
2023/01/27 06:15:10;;;;;;;9.65;5.35;;;;;;;4.67;56.70;100578.53;5071971;28;20037;-72
2023/01/27 06:17:39;;;;;;;9.30;4.97;;;;;;;4.63;58.29;100578.19;5076359;28;20056;-71
2023/01/27 06:20:08;;;;;;;10.45;5.40;;;;;;;4.65;57.01;100586.09;5086717;28;20063;-71
2023/01/27 06:22:36;;;;;;;8.02;5.20;;;;;;;4.61;56.58;100572.19;5061965;28;20044;-72
2023/01/27 06:25:04;;;;;;;10.13;4.93;;;;;;;4.82;56.49;100578.84;5075263;28;20045;-74
2023/01/27 06:27:32;;;;;;;9.57;4.82;;;;;;;4.76;55.93;100582.53;5071933;28;20057;-73
2023/01/27 06:30:00;;;;;;;15.10;5.10;;;;;;;4.66;56.79;100580.44;5071833;28;20063;-73
2023/01/27 06:32:28;;;;;;;9.30;5.32;;;;;;;4.76;56.49;100582.53;5071996;28;20040;-73
2023/01/27 06:34:56;;;;;;;10.80;6.05;;;;;;;4.80;54.33;100577.44;5071607;28;20052;-73
2023/01/27 06:37:23;;;;;;;8.90;4.78;;;;;;;4.74;54.93;100586.53;5072678;28;20032;-72
2023/01/27 06:39:51;;;;;;;11.07;4.50;;;;;;;4.62;54.86;100590.09;5038813;28;20045;-72
2023/01/27 06:42:19;;;;;;;11.15;5.03;;;;;;;4.56;54.98;100591.88;5028333;28;20053;-72
2023/01/27 06:44:47;;;;;;;10.98;5.00;;;;;;;4.47;56.35;100600.59;5015569;28;20056;-73
2023/01/27 06:47:15;;;;;;;10.50;4.65;;;;;;;4.73;56.32;100598.44;5031835;28;20065;-71
2023/01/27 06:49:42;;;;;;;12.57;4.43;;;;;;;4.56;54.30;100599.19;5033054;28;20049;-71
2023/01/27 06:52:10;;;;;;;8.38;4.65;;;;;;;4.76;54.36;100593.38;5032697;28;20483;-72
2023/01/27 06:54:38;;;;;;;10.70;4.22;;;;;;;4.89;54.64;100597.66;5030989;28;20495;-71
2023/01/27 06:57:08;;;;;;;7.13;3.88;;;;;;;4.81;55.84;100601.59;5031275;28;20037;-71
2023/01/27 06:59:37;;;;;;;9.48;5.32;;;;;;;4.89;53.04;100602.28;5031173;28;20038;-72
2023/01/27 07:02:05;;;;;;;11.27;5.72;;;;;;;4.83;54.60;100602.19;5030418;28;20057;-71
2023/01/27 07:04:33;;;;;;;12.10;4.78;;;;;;;4.84;54.56;100601.09;5030499;28;20081;-71
2023/01/27 07:07:00;;;;;;;10.00;5.15;;;;;;;4.79;54.15;100601.00;5031994;28;20056;-71
2023/01/27 07:09:28;;;;;;;10.40;5.20;;;;;;;4.67;55.17;100598.34;5032742;28;20053;-71
2023/01/27 07:12:02;;;;;;;22.25;8.45;;;;;;;4.80;55.13;100604.56;5032780;28;20515;-71
2023/01/27 07:14:29;;;;;;;13.73;7.18;;;;;;;4.79;54.96;100611.84;5031778;28;20053;-72
2023/01/27 07:16:57;;;;;;;8.45;4.15;;;;;;;4.91;54.65;100608.28;5032323;28;20061;-72
2023/01/27 07:19:25;;;;;;;9.80;4.95;;;;;;;4.87;56.30;100598.97;5032467;28;20049;-72
2023/01/27 07:21:53;;;;;;;11.35;4.97;;;;;;;4.73;53.59;100612.81;5031998;28;20060;-72
2023/01/27 07:24:21;;;;;;;8.35;4.78;;;;;;;4.75;55.16;100602.56;5032590;28;20061;-72
2023/01/27 07:26:49;;;;;;;11.30;6.03;;;;;;;4.88;54.87;100617.72;5032647;28;20372;-72
2023/01/27 07:29:17;;;;;;;9.27;4.57;;;;;;;4.91;53.40;100611.00;5032459;28;20488;-72
2023/01/27 07:31:44;;;;;;;8.65;4.93;;;;;;;4.92;53.24;100618.91;5032618;28;20519;-72
2023/01/27 07:34:12;;;;;;;7.68;4.65;;;;;;;5.02;55.00;100620.97;5031893;28;20496;-72
2023/01/27 07:36:40;;;;;;;10.20;5.13;;;;;;;5.00;54.20;100625.00;5032764;28;20052;-72
2023/01/27 07:39:08;;;;;;;12.68;5.40;;;;;;;5.24;54.17;100625.75;5060686;28;20503;-72
2023/01/27 07:41:36;;;;;;;26.75;11.02;;;;;;;5.09;54.23;100628.97;5055366;28;20498;-72
2023/01/27 07:44:04;;;;;;;10.27;5.45;;;;;;;5.02;53.42;100631.81;5058499;28;20053;-72
2023/01/27 07:46:33;;;;;;;14.98;6.07;;;;;;;5.08;54.03;100636.28;5069136;28;20059;-72
2023/01/27 07:49:01;;;;;;;13.05;7.28;;;;;;;5.28;53.63;100637.72;5070458;28;20045;-72
2023/01/27 07:51:29;;;;;;;10.15;4.68;;;;;;;5.36;52.79;100640.06;5069408;28;20044;-72
2023/01/27 07:53:56;;;;;;;8.95;4.32;;;;;;;5.26;53.23;100639.88;5070008;28;20402;-72
2023/01/27 07:56:26;;;;;;;10.05;4.97;;;;;;;5.57;52.62;100631.47;5069844;28;20115;-70
2023/01/27 07:58:54;;;;;;;10.18;4.82;;;;;;;5.58;54.13;100633.91;5051180;28;20048;-71
2023/01/27 08:01:23;;;;;;;10.23;5.22;;;;;;;5.55;53.11;100633.59;5069132;28;20164;-71
2023/01/27 08:03:51;;;;;;;11.48;5.13;;;;;;;5.38;54.02;100637.13;5069979;28;20059;-71
2023/01/27 08:06:18;;;;;;;11.75;5.70;;;;;;;5.37;52.72;100639.00;5071576;28;20044;-70
2023/01/27 08:08:47;;;;;;;15.02;6.20;;;;;;;5.68;53.17;100632.47;5071681;28;20048;-71
2023/01/27 08:11:15;;;;;;;10.15;5.65;;;;;;;5.76;52.68;100632.88;5070995;28;20049;-71
2023/01/27 08:13:43;;;;;;;12.00;6.07;;;;;;;5.81;53.77;100634.84;5070885;28;20048;-71
2023/01/27 08:16:12;;;;;;;11.10;5.20;;;;;;;5.92;52.47;100636.66;5053326;28;20053;-72
2023/01/27 08:18:41;;;;;;;12.07;5.50;;;;;;;5.88;51.05;100635.50;5070466;28;20383;-72
2023/01/27 08:21:10;;;;;;;11.32;5.95;;;;;;;5.83;51.54;100640.88;5071636;28;20044;-72
2023/01/27 08:23:39;;;;;;;11.68;5.68;;;;;;;5.65;50.96;100640.03;5071093;28;20048;-72
2023/01/27 08:26:07;;;;;;;16.13;5.90;;;;;;;5.64;51.71;100640.28;5071094;28;20041;-73
2023/01/27 08:28:36;;;;;;;11.68;5.53;;;;;;;6.00;51.51;100650.91;5071441;28;20041;-72
2023/01/27 08:31:12;;;;;;;11.85;5.90;;;;;;;6.03;50.66;100648.53;5070805;28;20051;-72
2023/01/27 08:33:41;;;;;;;8.30;5.22;;;;;;;6.09;51.83;100645.91;5070728;28;20052;-72
2023/01/27 08:36:12;;;;;;;10.05;4.60;;;;;;;6.02;51.50;100646.91;5070820;28;20067;-74
2023/01/27 08:38:41;;;;;;;10.48;5.18;;;;;;;6.31;52.09;100654.13;5070127;28;20048;-74
2023/01/27 08:41:11;;;;;;;15.27;4.88;;;;;;;6.63;49.26;100655.38;5070358;28;20498;-74
2023/01/27 08:43:40;;;;;;;9.13;4.88;;;;;;;6.58;48.91;100646.09;5070719;28;20052;-73
2023/01/27 08:46:09;;;;;;;10.77;5.43;;;;;;;6.50;50.54;100656.56;5071196;28;20049;-74
2023/01/27 08:48:37;;;;;;;13.40;5.30;;;;;;;6.83;52.25;100649.38;5071057;28;20513;-74
2023/01/27 08:51:06;;;;;;;9.00;4.85;;;;;;;6.65;49.88;100654.03;5070334;28;20490;-74
2023/01/27 08:53:35;;;;;;;8.57;4.65;;;;;;;6.89;50.41;100659.25;5070538;28;20052;-74
2023/01/27 08:56:07;;;;;;;10.88;4.97;;;;;;;6.99;49.41;100656.66;5071143;28;20604;-74
2023/01/27 08:58:35;;;;;;;11.32;5.32;;;;;;;6.99;48.53;100653.94;5070538;28;20049;-74
2023/01/27 09:01:05;;;;;;;12.98;5.30;;;;;;;7.09;49.13;100652.41;5070268;28;20395;-74
2023/01/27 09:03:33;;;;;;;12.93;5.25;;;;;;;7.11;49.38;100652.97;5070773;28;20063;-74
2023/01/27 09:06:03;;;;;;;11.57;5.75;;;;;;;7.11;49.84;100650.25;5071225;28;20040;-74
2023/01/27 09:08:31;;;;;;;16.33;6.30;;;;;;;7.07;51.57;100649.09;5071139;28;20514;-74
2023/01/27 09:10:58;;;;;;;13.38;6.03;;;;;;;7.21;51.41;100650.38;5070374;28;20059;-74
2023/01/27 09:13:27;;;;;;;12.00;5.72;;;;;;;7.16;49.91;100650.31;5069748;28;20059;-74
2023/01/27 09:15:55;;;;;;;20.38;8.13;;;;;;;6.75;48.11;100658.78;5070902;28;20387;-74
2023/01/27 09:18:23;;;;;;;18.27;7.65;;;;;;;6.51;50.70;100656.28;5070947;28;20351;-74
2023/01/27 09:20:50;;;;;;;12.57;5.85;;;;;;;6.27;49.72;100661.13;5070531;28;20490;-73
2023/01/27 09:23:21;;;;;;;8.80;5.25;;;;;;;6.12;50.49;100667.97;5070397;28;20487;-73
2023/01/27 09:25:49;;;;;;;13.52;5.07;;;;;;;5.84;50.77;100664.25;5072222;28;20063;-74
2023/01/27 09:28:17;;;;;;;8.60;4.85;;;;;;;5.86;51.37;100670.25;5055899;28;20414;-74
2023/01/27 09:30:45;;;;;;;9.50;4.75;;;;;;;5.90;50.63;100676.00;5074158;28;20466;-74
2023/01/27 09:33:14;;;;;;;11.75;5.78;;;;;;;5.94;50.18;100676.34;5073700;28;20060;-74
2023/01/27 09:35:49;;;;;;;12.98;5.65;;;;;;;5.98;51.06;100681.03;5073456;28;20402;-74
2023/01/27 09:38:20;;;;;;;15.57;6.18;;;;;;;6.23;49.74;100682.56;5073629;28;20499;-73
2023/01/27 09:40:54;;;;;;;11.20;4.60;;;;;;;6.33;50.72;100687.31;5073973;28;20052;-73
2023/01/27 09:43:50;;;;;;;10.40;4.82;;;;;;;6.00;51.65;100678.06;5073498;28;20048;-74
2023/01/27 09:46:30;;;;;;;11.27;5.68;;;;;;;6.26;49.98;100690.19;5071927;28;20486;-73
2023/01/27 09:49:18;;;;;;;13.70;5.22;;;;;;;6.12;51.17;100688.91;5073166;28;20056;-73
2023/01/27 09:51:59;;;;;;;11.45;6.10;;;;;;;5.79;52.68;100692.13;5074258;28;20063;-74
2023/01/27 09:54:50;;;;;;;11.27;4.75;;;;;;;5.89;50.50;100683.34;5073694;28;20056;-74
2023/01/27 09:57:37;;;;;;;11.55;4.93;;;;;;;6.17;52.28;100687.06;5073394;28;20063;-73
2023/01/27 10:00:44;;;;;;;8.32;4.50;;;;;;;6.02;49.50;100697.69;5074069;28;20044;-74
2023/01/27 10:03:55;;;;;;;9.35;4.93;;;;;;;6.17;50.90;100686.25;5063079;28;20414;-74
2023/01/27 10:06:56;;;;;;;10.38;5.03;;;;;;;5.99;50.31;100690.00;5043427;28;20392;-74
2023/01/27 10:09:44;;;;;;;9.30;5.25;;;;;;;6.04;51.40;100692.84;5055470;28;20498;-74
2023/01/27 10:12:25;;;;;;;9.55;5.10;;;;;;;6.01;50.78;100685.16;5042370;28;20483;-74
2023/01/27 10:15:08;;;;;;;12.20;5.20;;;;;;;6.08;50.90;100682.28;5072586;28;20056;-74
2023/01/27 10:18:09;;;;;;;11.73;6.10;;;;;;;6.17;50.39;100687.06;5073752;28;20053;-74
2023/01/27 10:21:20;;;;;;;11.05;5.55;;;;;;;6.06;49.89;100690.69;5073319;28;20051;-74
2023/01/27 10:24:35;;;;;;;10.65;5.07;;;;;;;6.14;48.20;100687.56;5010308;28;20485;-74
2023/01/27 10:27:18;;;;;;;9.70;4.57;;;;;;;6.16;49.12;100682.72;5038302;28;20441;-73
2023/01/27 10:30:06;;;;;;;9.93;4.63;;;;;;;6.42;47.63;100682.28;5072889;28;20048;-73
2023/01/27 10:32:43;;;;;;;22.70;8.57;;;;;;;6.14;50.44;100681.31;5072063;28;20060;-74
2023/01/27 10:35:24;;;;;;;17.80;6.70;;;;;;;6.26;50.50;100679.31;5073585;28;20071;-74
2023/01/27 10:38:20;;;;;;;10.35;5.07;;;;;;;6.24;49.45;100675.19;5072057;28;20040;-73
2023/01/27 10:41:11;;;;;;;11.77;5.43;;;;;;;5.84;49.07;100677.81;5072765;28;20045;-74
2023/01/27 10:44:02;;;;;;;16.83;7.72;;;;;;;5.92;48.62;100677.41;5072440;28;20052;-74
2023/01/27 10:46:42;;;;;;;15.18;7.45;;;;;;;6.10;49.92;100680.97;5072233;28;20087;-74
2023/01/27 10:49:22;;;;;;;10.25;5.65;;;;;;;6.39;48.04;100678.16;5072290;28;20064;-74
2023/01/27 10:51:59;;;;;;;9.10;5.00;;;;;;;6.10;47.62;100677.47;5072817;28;20067;-74
2023/01/27 10:54:40;;;;;;;9.40;4.63;;;;;;;6.05;47.98;100673.59;5072901;28;20057;-74
2023/01/27 10:57:41;;;;;;;8.98;5.00;;;;;;;6.26;48.92;100679.31;5072513;28;20052;-74
2023/01/27 11:00:42;;;;;;;7.45;4.07;;;;;;;6.08;48.71;100676.88;5042743;28;20067;-74
2023/01/27 11:03:35;;;;;;;7.95;4.60;;;;;;;6.30;48.33;100682.38;5071879;28;20064;-74
2023/01/27 11:06:20;;;;;;;9.65;5.22;;;;;;;6.37;49.33;100666.72;5071782;28;20056;-74
2023/01/27 11:08:54;;;;;;;9.27;5.07;;;;;;;6.08;48.33;100666.00;5071939;28;20146;-73
2023/01/27 11:14:40;;;;;;;11.13;5.90;;;;;;;6.52;48.68;100665.28;5072401;28;20040;-73
2023/01/27 11:17:29;;;;;;;13.70;6.13;;;;;;;6.76;47.84;100663.19;5072845;28;20487;-72
2023/01/27 11:20:37;;;;;;;11.70;5.28;;;;;;;6.59;45.96;100661.31;5052650;28;20037;-72
2023/01/27 11:23:16;;;;;;;8.02;4.90;;;;;;;6.59;47.12;100664.03;5071577;28;20063;-73
2023/01/27 11:25:55;;;;;;;10.82;4.85;;;;;;;6.71;46.95;100655.75;5070703;28;20049;-72
2023/01/27 11:29:05;;;;;;;10.57;5.10;;;;;;;6.86;46.74;100649.69;5071323;28;20044;-72
2023/01/27 11:31:41;;;;;;;7.55;4.60;;;;;;;6.85;46.01;100660.84;5061316;28;20514;-72
2023/01/27 11:34:23;;;;;;;10.23;5.47;;;;;;;7.30;46.26;100647.19;5068299;28;20044;-72
2023/01/27 11:36:52;;;;;;;8.55;4.95;;;;;;;7.01;44.89;100655.56;5070156;28;20051;-72
2023/01/27 11:39:20;;;;;;;8.60;4.25;;;;;;;7.17;43.76;100640.22;5071201;28;20052;-73
2023/01/27 11:41:54;;;;;;;8.38;4.85;;;;;;;7.98;43.94;100641.28;5070768;28;20060;-72
2023/01/27 11:44:33;;;;;;;10.70;4.60;;;;;;;8.63;42.64;100644.94;5071607;28;20063;-73
2023/01/27 11:47:04;;;;;;;9.05;4.55;;;;;;;8.86;43.46;100635.53;5071928;28;20045;-72
2023/01/27 11:49:41;;;;;;;8.93;4.43;;;;;;;9.01;42.10;100634.75;5070988;28;20044;-73
2023/01/27 11:52:15;;;;;;;9.48;4.78;;;;;;;9.18;42.53;100629.06;5052671;28;20048;-73
2023/01/27 11:54:51;;;;;;;8.02;4.40;;;;;;;9.33;41.89;100622.00;5070163;28;20407;-73
2023/01/27 11:57:22;;;;;;;7.70;4.15;;;;;;;9.36;41.95;100616.00;5069747;28;20388;-73
2023/01/27 11:59:56;;;;;;;8.77;4.38;;;;;;;9.50;41.43;100616.28;5069422;28;20498;-73
2023/01/27 12:02:34;;;;;;;11.60;4.95;;;;;;;9.58;41.09;100615.75;5070218;28;20055;-73
2023/01/27 12:05:11;;;;;;;12.38;5.70;;;;;;;10.08;42.21;100616.00;5070870;28;20044;-72
2023/01/27 12:07:48;;;;;;;7.57;4.72;;;;;;;9.39;41.68;100616.25;5070721;28;20059;-72
2023/01/27 12:10:39;;;;;;;11.45;4.80;;;;;;;8.97;42.07;100600.88;5070917;28;20403;-73
2023/01/27 12:13:08;;;;;;;8.30;4.72;;;;;;;8.92;41.78;100609.06;5071800;28;20051;-72
2023/01/27 12:15:45;;;;;;;11.82;5.05;;;;;;;8.92;41.30;100607.16;5053117;28;20490;-72
2023/01/27 12:18:14;;;;;;;11.32;5.72;;;;;;;9.15;42.38;100602.31;5071068;28;20063;-72
2023/01/27 12:21:01;;;;;;;11.38;5.38;;;;;;;9.56;40.60;100596.06;5071984;28;20044;-73
2023/01/27 12:23:28;;;;;;;12.15;5.50;;;;;;;10.16;42.08;100591.94;5053965;28;20498;-73
2023/01/27 12:25:59;;;;;;;10.30;4.85;;;;;;;9.97;39.23;100588.97;5071792;28;20050;-72
2023/01/27 12:28:38;;;;;;;16.73;7.57;;;;;;;9.79;40.49;100589.22;5072048;28;20051;-73